Haines City, Florida
Current Conditions -  °F | °C
As of 9:53 PM on Saturday 20 Dec 2014 (Local Time) from KGIF Reporting Station
Clear Clear  
Wind Chill: 66°   Ceiling: Unl
Heat Index: 66°   Visibility: 10mi
Dew Point: 57°   Wind: 6mph
Humidity: 73%   Direction: 110°ESE
Pressure: 30.1"   Gusts: NA
Location:  28.11°N, 81.63°W
Report Text: KGIF 210253Z AUTO 11005KT 10SM CLR 19/14 A3010 RMK AO2 SLP191 T01890139 53007
Loading
Personal Weather Stations






























Interactive Weather Map New forecast layout! Learn more

10-Day Weather Forecast

Advertisements
Track Severe Weather on mobile